createdAt,value
2018-04-12T00:00:22.926Z,90.40
2018-04-12T00:02:50.450Z,90.50
2018-04-12T00:05:18.141Z,90.40
2018-04-12T00:07:45.656Z,90.50
2018-04-12T00:10:13.845Z,90.50
2018-04-12T00:12:42.249Z,90.50
2018-04-12T00:15:09.911Z,90.50
2018-04-12T00:17:37.422Z,90.50
2018-04-12T00:20:04.979Z,90.60
2018-04-12T00:22:32.495Z,90.60
2018-04-12T00:24:59.999Z,90.60
2018-04-12T00:27:27.500Z,90.60
2018-04-12T00:29:55.847Z,90.70
2018-04-12T00:32:23.421Z,90.60
2018-04-12T00:34:50.932Z,90.60
2018-04-12T00:37:18.475Z,90.60
2018-04-12T00:39:46.214Z,90.60
2018-04-12T00:42:14.612Z,90.60
2018-04-12T00:44:42.651Z,90.60
2018-04-12T00:47:10.830Z,90.50
2018-04-12T00:49:38.471Z,90.50
2018-04-12T00:52:06.490Z,90.50
2018-04-12T00:54:34.202Z,90.50
2018-04-12T00:57:02.036Z,90.60
2018-04-12T00:59:30.045Z,90.60
2018-04-12T01:01:57.645Z,90.60
2018-04-12T01:04:25.229Z,90.70
2018-04-12T01:06:52.798Z,90.80
2018-04-12T01:09:21.076Z,90.90
2018-04-12T01:11:48.700Z,90.90
2018-04-12T01:14:16.989Z,91.00
2018-04-12T01:16:44.695Z,91.00
2018-04-12T01:19:12.203Z,91.10
2018-04-12T01:21:40.188Z,91.20
2018-04-12T01:24:07.761Z,91.10
2018-04-12T01:26:35.577Z,91.50
2018-04-12T01:29:03.257Z,91.10
2018-04-12T01:31:31.640Z,91.20
2018-04-12T01:33:59.169Z,91.20
2018-04-12T01:36:26.905Z,91.20
2018-04-12T01:38:54.400Z,91.30
2018-04-12T01:41:21.930Z,91.20
2018-04-12T01:43:49.693Z,91.30
2018-04-12T01:46:17.190Z,91.40
2018-04-12T01:48:45.567Z,91.30
2018-04-12T01:51:13.922Z,91.40
2018-04-12T01:53:41.527Z,91.30
2018-04-12T01:56:09.028Z,91.30
2018-04-12T01:58:36.538Z,91.30
2018-04-12T02:01:04.845Z,91.50
2018-04-12T02:03:32.396Z,91.40
2018-04-12T02:05:59.910Z,91.50
2018-04-12T02:08:28.189Z,92.00
2018-04-12T02:10:55.847Z,91.60
2018-04-12T02:13:23.370Z,91.60
2018-04-12T02:15:50.878Z,91.70
2018-04-12T02:18:19.163Z,92.20
2018-04-12T02:20:46.793Z,91.80
2018-04-12T02:23:15.214Z,91.80
2018-04-12T02:25:43.190Z,91.90
2018-04-12T02:28:10.757Z,92.00
2018-04-12T02:30:38.323Z,92.00
2018-04-12T02:33:06.470Z,92.00
2018-04-12T02:35:33.989Z,92.10
2018-04-12T02:38:02.432Z,92.10
2018-04-12T02:40:29.933Z,92.20
2018-04-12T02:42:57.461Z,92.20
2018-04-12T02:45:25.060Z,92.30
2018-04-12T02:47:52.616Z,92.30
2018-04-12T02:50:20.158Z,92.30
2018-04-12T02:52:47.703Z,92.40
2018-04-12T02:55:15.220Z,92.40
2018-04-12T02:57:42.921Z,92.40
2018-04-12T03:00:10.504Z,92.50
2018-04-12T03:02:38.009Z,92.50
2018-04-12T03:05:06.279Z,92.60
2018-04-12T03:07:33.812Z,92.50
2018-04-12T03:10:01.845Z,92.50
2018-04-12T03:12:29.450Z,92.60
2018-04-12T03:14:57.265Z,92.60
2018-04-12T03:17:24.766Z,92.70
2018-04-12T03:19:52.474Z,92.70
2018-04-12T03:22:20.160Z,92.70
2018-04-12T03:24:47.757Z,92.70
2018-04-12T03:27:15.364Z,92.80
2018-04-12T03:29:42.915Z,92.90
2018-04-12T03:32:10.996Z,92.90
2018-04-12T03:34:38.512Z,92.90
2018-04-12T03:37:06.004Z,93.00
2018-04-12T03:39:34.282Z,93.00
2018-04-12T03:42:02.056Z,93.00
2018-04-12T03:44:29.600Z,93.10
2018-04-12T03:46:58.180Z,93.10
2018-04-12T03:49:26.512Z,93.20
2018-04-12T03:51:54.100Z,93.20
2018-04-12T03:54:21.852Z,93.20
2018-04-12T03:56:49.592Z,93.20
2018-04-12T03:59:17.104Z,93.20
2018-04-12T04:01:44.640Z,93.20
2018-04-12T04:04:12.168Z,93.20
2018-04-12T04:06:40.025Z,93.30
2018-04-12T04:09:07.574Z,93.30
2018-04-12T04:11:35.082Z,93.40
2018-04-12T04:14:02.886Z,93.40
2018-04-12T04:16:43.018Z,93.30
2018-04-12T04:19:22.345Z,93.30
2018-04-12T04:21:50.744Z,93.30
2018-04-12T04:24:18.656Z,93.40
2018-04-12T04:26:46.237Z,93.40
2018-04-12T04:29:13.835Z,93.40
2018-04-12T04:31:41.799Z,93.60
2018-04-12T04:34:09.382Z,93.30
2018-04-12T04:36:37.011Z,93.10
2018-04-12T04:39:05.383Z,92.80
2018-04-12T04:41:32.914Z,92.90
2018-04-12T04:44:00.557Z,92.70
2018-04-12T04:46:28.883Z,92.50
2018-04-12T04:48:56.416Z,92.40
2018-04-12T04:51:23.959Z,92.00
2018-04-12T04:53:51.654Z,91.80
2018-04-12T04:56:19.519Z,91.60
2018-04-12T04:58:47.041Z,91.30
2018-04-12T05:01:14.539Z,90.60
2018-04-12T05:03:42.105Z,89.30
2018-04-12T05:06:09.620Z,88.30
2018-04-12T05:08:37.449Z,87.50
2018-04-12T05:11:05.310Z,87.00
2018-04-12T05:13:32.899Z,86.00
2018-04-12T05:16:01.236Z,82.30
2018-04-12T05:18:28.763Z,82.30
2018-04-12T05:20:57.041Z,80.90
2018-04-12T05:23:24.557Z,78.70
2018-04-12T05:25:52.235Z,77.50
2018-04-12T05:28:19.750Z,75.80
2018-04-12T05:30:47.260Z,73.00
2018-04-12T05:33:14.856Z,72.60
2018-04-12T05:35:42.502Z,71.40
2018-04-12T05:38:10.154Z,69.10
2018-04-12T05:40:37.824Z,69.20
2018-04-12T05:43:05.366Z,69.00
2018-04-12T05:45:32.905Z,69.60
2018-04-12T05:48:01.798Z,65.10
2018-04-12T05:50:30.082Z,63.60
2018-04-12T05:52:57.669Z,63.50
2018-04-12T05:55:25.208Z,63.00
2018-04-12T05:57:52.737Z,61.90
2018-04-12T06:00:20.264Z,62.30
2018-04-12T06:02:47.808Z,62.50
2018-04-12T06:05:15.751Z,60.70
2018-04-12T06:07:43.457Z,58.90
2018-04-12T06:10:11.030Z,58.40
2018-04-12T06:12:38.589Z,57.20
2018-04-12T06:15:06.126Z,57.70
2018-04-12T06:17:34.464Z,57.20
2018-04-12T06:20:03.209Z,54.70
2018-04-12T06:22:30.760Z,54.40
2018-04-12T06:24:58.441Z,53.60
2018-04-12T06:27:27.199Z,51.90
2018-04-12T06:29:54.807Z,51.90
2018-04-12T06:32:22.327Z,50.20
2018-04-12T06:34:50.037Z,49.70
2018-04-12T06:37:18.056Z,50.50
2018-04-12T06:39:45.579Z,50.50
2018-04-12T06:42:13.251Z,52.80
2018-04-12T06:44:40.748Z,54.70
2018-04-12T06:47:08.294Z,56.10
2018-04-12T06:49:36.571Z,56.00
2018-04-12T06:52:05.386Z,56.80
2018-04-12T06:54:33.130Z,56.70
2018-04-12T06:57:00.647Z,56.80
2018-04-12T06:59:28.162Z,57.10
2018-04-12T07:01:55.743Z,57.80
2018-04-12T07:04:23.627Z,58.20
2018-04-12T07:06:51.970Z,59.90
2018-04-12T07:09:19.544Z,59.90
2018-04-12T07:11:47.162Z,60.50
2018-04-12T07:14:14.847Z,62.70
2018-04-12T07:16:42.462Z,63.50
2018-04-12T07:19:10.470Z,62.70
2018-04-12T07:21:37.957Z,63.10
2018-04-12T07:24:05.508Z,63.20
2018-04-12T07:26:33.128Z,62.40
2018-04-12T07:29:01.382Z,61.40
2018-04-12T07:31:29.657Z,62.10
2018-04-12T07:33:57.180Z,62.10
2018-04-12T07:36:24.698Z,62.30
2018-04-12T07:38:52.478Z,63.40
2018-04-12T07:41:20.662Z,64.10
2018-04-12T07:43:48.187Z,65.10
2018-04-12T07:46:15.698Z,64.70
2018-04-12T07:48:43.209Z,64.70
2018-04-12T07:51:11.663Z,63.10
2018-04-12T07:53:39.241Z,63.10
2018-04-12T07:56:07.543Z,61.70
2018-04-12T07:58:35.078Z,61.70
2018-04-12T08:01:02.670Z,60.70
2018-04-12T08:03:30.251Z,61.00
2018-04-12T08:05:57.762Z,60.90
2018-04-12T08:08:26.061Z,59.70
2018-04-12T08:10:53.593Z,59.20
2018-04-12T08:13:21.186Z,58.20
2018-04-12T08:15:49.176Z,58.00
2018-04-12T08:18:16.699Z,58.40
2018-04-12T08:20:44.974Z,58.20
2018-04-12T08:23:12.689Z,58.40
2018-04-12T08:25:40.206Z,58.20
2018-04-12T08:28:08.648Z,57.70
2018-04-12T08:30:36.198Z,57.60
2018-04-12T08:33:03.710Z,57.40
2018-04-12T08:35:31.251Z,58.50
2018-04-12T08:37:59.616Z,59.50
2018-04-12T08:40:27.141Z,59.60
2018-04-12T08:42:54.888Z,59.10
2018-04-12T08:45:22.427Z,59.60
2018-04-12T08:47:50.786Z,58.50
2018-04-12T08:50:19.059Z,57.50
2018-04-12T08:52:47.689Z,57.70
2018-04-12T08:55:15.252Z,57.70
2018-04-12T08:57:42.775Z,57.20
2018-04-12T09:00:11.908Z,57.70
2018-04-12T09:02:39.424Z,57.70
2018-04-12T09:05:06.936Z,58.40
2018-04-12T09:07:34.538Z,59.10
2018-04-12T09:10:02.838Z,59.00
2018-04-12T09:12:30.619Z,59.10
2018-04-12T09:14:58.319Z,59.10
2018-04-12T09:17:25.904Z,58.70
2018-04-12T09:19:53.625Z,58.30
2018-04-12T09:22:21.225Z,58.10
2018-04-12T09:24:48.756Z,57.90
2018-04-12T09:27:17.211Z,57.10
2018-04-12T09:29:44.925Z,56.90
2018-04-12T09:32:12.446Z,56.80
2018-04-12T09:34:40.166Z,56.80
2018-04-12T09:37:08.584Z,55.30
2018-04-12T09:39:36.158Z,55.30
2018-04-12T09:42:03.766Z,54.70
2018-04-12T09:44:31.340Z,55.40
2018-04-12T09:46:59.138Z,56.50
2018-04-12T09:49:26.693Z,56.70
2018-04-12T09:51:54.968Z,56.90
2018-04-12T09:54:23.537Z,56.90
2018-04-12T09:56:51.111Z,57.30
2018-04-12T09:59:18.658Z,57.00
2018-04-12T10:01:52.168Z,56.90
2018-04-12T10:04:19.752Z,56.60
2018-04-12T10:06:52.513Z,57.00
2018-04-12T10:09:20.034Z,56.50
2018-04-12T10:11:48.340Z,55.40
2018-04-12T10:14:16.140Z,55.30
2018-04-12T10:16:43.674Z,55.00
2018-04-12T10:19:11.191Z,54.90
2018-04-12T10:21:39.672Z,55.20
2018-04-12T10:24:07.142Z,55.20
2018-04-12T10:26:34.674Z,55.20
2018-04-12T10:29:02.264Z,54.90
2018-04-12T10:31:29.812Z,54.40
2018-04-12T10:33:57.328Z,54.90
2018-04-12T10:36:25.035Z,55.40
2018-04-12T10:38:52.965Z,54.30
2018-04-12T10:41:21.087Z,54.80
2018-04-12T10:43:48.604Z,54.60
2018-04-12T10:46:16.123Z,54.20
2018-04-12T10:48:43.688Z,53.90
2018-04-12T10:51:11.872Z,53.90
2018-04-12T10:53:39.433Z,53.90
2018-04-12T10:56:06.970Z,53.70
2018-04-12T10:58:34.808Z,53.50
2018-04-12T11:01:02.401Z,53.80
2018-04-12T11:03:29.918Z,53.20
2018-04-12T11:05:57.507Z,53.50
2018-04-12T11:08:25.816Z,52.90
2018-04-12T11:10:53.585Z,52.80
2018-04-12T11:13:21.140Z,52.50
2018-04-12T11:15:48.760Z,52.40
2018-04-12T11:18:16.384Z,52.30
2018-04-12T11:20:43.868Z,51.80
2018-04-12T11:23:14.391Z,52.20
2018-04-12T11:25:42.819Z,52.20
2018-04-12T11:28:10.425Z,52.20
2018-04-12T11:30:38.905Z,52.70
2018-04-12T11:33:06.468Z,52.70
2018-04-12T11:35:34.073Z,52.50
2018-04-12T11:38:01.780Z,52.80
2018-04-12T11:40:29.355Z,52.60
2018-04-12T11:42:57.010Z,51.90
2018-04-12T11:45:24.542Z,51.40
2018-04-12T11:47:52.405Z,51.50
2018-04-12T11:50:20.713Z,50.70
2018-04-12T11:52:48.250Z,50.20
2018-04-12T11:55:15.917Z,50.20
2018-04-12T11:57:43.423Z,49.80
2018-04-12T12:00:11.041Z,49.50
2018-04-12T12:02:38.561Z,49.40
2018-04-12T12:05:06.873Z,49.60
2018-04-12T12:07:34.449Z,49.60
2018-04-12T12:10:02.012Z,49.20
2018-04-12T12:12:29.578Z,49.50
2018-04-12T12:14:57.130Z,49.30
2018-04-12T12:17:24.663Z,49.20
2018-04-12T12:19:52.428Z,49.10
2018-04-12T12:22:19.963Z,49.20
2018-04-12T12:24:47.582Z,48.80
2018-04-12T12:27:15.127Z,48.90
2018-04-12T12:29:42.648Z,48.30
2018-04-12T12:32:10.591Z,48.40
2018-04-12T12:34:38.238Z,47.80
2018-04-12T12:37:08.311Z,47.20
2018-04-12T12:39:35.784Z,46.50
2018-04-12T12:42:03.295Z,45.60
2018-04-12T12:44:36.808Z,45.50
2018-04-12T12:47:04.403Z,45.90
2018-04-12T12:49:37.895Z,46.10
2018-04-12T12:52:05.745Z,45.50
2018-04-12T12:54:38.938Z,45.30
2018-04-12T12:57:06.460Z,45.20
2018-04-12T12:59:33.966Z,44.70
2018-04-12T13:02:01.504Z,44.90
2018-04-12T13:04:34.827Z,45.00
2018-04-12T13:07:02.560Z,45.60
2018-04-12T13:09:31.040Z,44.10
2018-04-12T13:11:58.642Z,44.10
2018-04-12T13:14:32.031Z,44.10
2018-04-12T13:17:05.445Z,44.10
2018-04-12T13:19:32.990Z,44.40
2018-04-12T13:22:00.497Z,44.10
2018-04-12T13:24:34.166Z,44.20
2018-04-12T13:27:02.505Z,42.90
2018-04-12T13:29:35.647Z,43.00
2018-04-12T13:32:03.155Z,42.50
2018-04-12T13:34:36.319Z,41.50
2018-04-12T13:37:04.130Z,41.20
2018-04-12T13:39:37.434Z,41.00
2018-04-12T13:42:04.952Z,40.70
2018-04-12T13:44:39.316Z,40.50
2018-04-12T13:47:07.025Z,40.50
2018-04-12T13:49:35.393Z,40.60
2018-04-12T13:52:02.934Z,40.30
2018-04-12T13:54:30.465Z,40.40
2018-04-12T13:57:03.819Z,40.50
2018-04-12T13:59:37.273Z,40.70
2018-04-12T14:02:04.898Z,40.40
2018-04-12T14:04:38.369Z,40.30
2018-04-12T14:07:06.136Z,40.10
2018-04-12T14:09:39.786Z,39.80
2018-04-12T14:12:07.420Z,40.00
2018-04-12T14:14:41.329Z,40.30
2018-04-12T14:17:09.609Z,40.70
2018-04-12T14:19:42.927Z,40.60
2018-04-12T14:22:16.200Z,40.60
2018-04-12T14:24:44.489Z,40.60
2018-04-12T14:27:12.096Z,40.60
2018-04-12T14:29:39.848Z,40.50
2018-04-12T14:32:13.444Z,40.20
2018-04-12T14:34:41.186Z,40.10
2018-04-12T14:37:09.092Z,40.90
2018-04-12T14:39:36.604Z,40.10
2018-04-12T14:42:04.179Z,39.70
2018-04-12T14:44:37.516Z,39.50
2018-04-12T14:47:05.131Z,39.30
2018-04-12T14:49:32.667Z,39.20
2018-04-12T14:52:00.939Z,38.70
2018-04-12T14:54:35.311Z,38.30
2018-04-12T14:57:02.907Z,38.30
2018-04-12T14:59:30.823Z,38.30
2018-04-12T15:02:10.222Z,38.70
2018-04-12T15:04:44.417Z,38.70
2018-04-12T15:07:17.860Z,38.80
2018-04-12T15:09:45.455Z,38.60
2018-04-12T15:12:12.959Z,38.90
2018-04-12T15:14:41.283Z,39.20
2018-04-12T15:17:14.633Z,39.20
2018-04-12T15:19:48.099Z,42.10
2018-04-12T15:22:16.849Z,43.70
2018-04-12T15:24:44.562Z,44.60
2018-04-12T15:27:23.526Z,45.50
2018-04-12T15:29:52.020Z,46.40
2018-04-12T15:32:19.638Z,46.90
2018-04-12T15:34:47.901Z,47.90
2018-04-12T15:37:15.785Z,47.80
2018-04-12T15:39:44.209Z,48.50
2018-04-12T15:42:11.738Z,48.80
2018-04-12T15:44:39.251Z,49.00
2018-04-12T15:47:06.790Z,49.00
2018-04-12T15:49:34.690Z,49.30
2018-04-12T15:52:02.290Z,49.50
2018-04-12T15:54:35.510Z,49.50
2018-04-12T15:57:03.074Z,49.70
2018-04-12T15:59:42.189Z,49.60
2018-04-12T16:02:09.755Z,49.50
2018-04-12T16:04:42.895Z,49.60
2018-04-12T16:07:22.124Z,50.00
2018-04-12T16:09:49.634Z,50.30
2018-04-12T16:12:17.172Z,50.50
2018-04-12T16:14:44.928Z,50.50
2018-04-12T16:17:12.563Z,50.60
2018-04-12T16:19:40.107Z,50.80
2018-04-12T16:22:07.691Z,51.20
2018-04-12T16:24:35.306Z,51.30
2018-04-12T16:27:03.035Z,51.30
2018-04-12T16:29:30.937Z,51.30
2018-04-12T16:32:04.480Z,51.60
2018-04-12T16:34:32.364Z,52.00
2018-04-12T16:37:00.242Z,52.30
2018-04-12T16:39:27.903Z,52.50
2018-04-12T16:42:01.359Z,52.60
2018-04-12T16:44:35.558Z,52.90
2018-04-12T16:47:03.338Z,53.30
2018-04-12T16:49:42.461Z,53.40
2018-04-12T16:52:21.670Z,53.70
2018-04-12T16:54:49.724Z,53.90
2018-04-12T16:57:23.737Z,54.50
2018-04-12T16:59:57.250Z,54.50
2018-04-12T17:02:24.807Z,54.70
2018-04-12T17:04:52.357Z,54.80
2018-04-12T17:07:26.725Z,55.60
2018-04-12T17:10:01.098Z,55.70
2018-04-12T17:12:34.539Z,55.30
2018-04-12T17:15:02.691Z,55.50
2018-04-12T17:17:30.226Z,55.90
2018-04-12T17:19:57.766Z,56.10
2018-04-12T17:22:26.305Z,56.70
2018-04-12T17:24:59.922Z,56.70
2018-04-12T17:27:33.074Z,56.90
2018-04-12T17:30:07.226Z,57.50
2018-04-12T17:32:34.975Z,57.40
2018-04-12T17:35:13.992Z,57.40
2018-04-12T17:37:41.626Z,57.70
2018-04-12T17:40:09.145Z,57.90
2018-04-12T17:42:36.666Z,58.10
2018-04-12T17:45:10.247Z,58.30
2018-04-12T17:47:43.610Z,58.50
2018-04-12T17:50:11.197Z,58.60
2018-04-12T17:52:44.955Z,58.90
2018-04-12T17:55:12.470Z,59.80
2018-04-12T17:57:40.766Z,59.80
2018-04-12T18:00:08.435Z,59.90
2018-04-12T18:02:36.767Z,60.10
2018-04-12T18:05:04.299Z,60.20
2018-04-12T18:07:32.592Z,60.70
2018-04-12T18:10:06.095Z,60.80
2018-04-12T18:12:34.112Z,61.00
2018-04-12T18:15:01.631Z,61.30
2018-04-12T18:17:29.219Z,61.50
2018-04-12T18:20:02.807Z,61.80
2018-04-12T18:22:30.331Z,62.00
2018-04-12T18:24:57.863Z,62.20
2018-04-12T18:27:25.422Z,62.60
2018-04-12T18:29:52.948Z,62.80
2018-04-12T18:32:20.502Z,63.10
2018-04-12T18:35:05.619Z,63.30
2018-04-12T18:37:33.148Z,63.40
2018-04-12T18:40:00.742Z,63.80
2018-04-12T18:42:28.294Z,63.90
2018-04-12T18:45:08.739Z,64.10
2018-04-12T18:47:37.101Z,64.50
2018-04-12T18:50:12.192Z,64.60
2018-04-12T18:52:39.965Z,64.70
2018-04-12T18:55:08.473Z,64.90
2018-04-12T18:57:36.125Z,64.90
2018-04-12T19:00:03.664Z,65.00
2018-04-12T19:02:36.957Z,65.20
2018-04-12T19:05:10.203Z,65.40
2018-04-12T19:07:37.722Z,65.50
2018-04-12T19:10:06.540Z,65.50
2018-04-12T19:12:39.979Z,65.60
2018-04-12T19:15:07.568Z,65.90
2018-04-12T19:17:41.432Z,66.00
2018-04-12T19:20:14.870Z,66.30
2018-04-12T19:22:42.407Z,66.50
2018-04-12T19:25:11.553Z,67.00
2018-04-12T19:27:44.984Z,66.90
2018-04-12T19:30:12.915Z,67.30
2018-04-12T19:32:40.592Z,67.50
2018-04-12T19:35:08.152Z,67.70
2018-04-12T19:37:42.410Z,67.90
2018-04-12T19:40:10.295Z,68.10
2018-04-12T19:42:38.049Z,68.30
2018-04-12T19:45:05.606Z,68.60
2018-04-12T19:47:33.357Z,68.90
2018-04-12T19:50:12.418Z,69.10
2018-04-12T19:52:45.573Z,69.20
2018-04-12T19:55:19.576Z,69.60
2018-04-12T19:57:53.217Z,69.60
2018-04-12T20:00:20.748Z,69.80
2018-04-12T20:02:48.321Z,70.10
2018-04-12T20:05:21.621Z,70.20
2018-04-12T20:08:01.052Z,70.30
2018-04-12T20:10:28.595Z,70.50
2018-04-12T20:12:56.898Z,70.90
2018-04-12T20:15:24.460Z,71.00
2018-04-12T20:17:51.971Z,71.30
2018-04-12T20:20:25.346Z,71.50
2018-04-12T20:22:53.087Z,71.70
2018-04-12T20:25:20.643Z,71.90
2018-04-12T20:27:53.915Z,72.30
2018-04-12T20:30:21.429Z,72.50
2018-04-12T20:32:49.151Z,72.70
2018-04-12T20:35:16.838Z,73.10
2018-04-12T20:37:50.902Z,73.70
2018-04-12T20:40:25.757Z,73.90
2018-04-12T20:42:53.419Z,73.90
2018-04-12T20:45:21.107Z,74.10
2018-04-12T20:47:48.902Z,74.40
2018-04-12T20:50:16.477Z,74.60
2018-04-12T20:52:44.849Z,75.00
2018-04-12T20:55:18.606Z,75.00
2018-04-12T20:57:46.170Z,75.40
2018-04-12T21:00:13.918Z,75.60
2018-04-12T21:02:47.228Z,75.90
2018-04-12T21:05:14.758Z,75.80
2018-04-12T21:07:48.939Z,76.30
2018-04-12T21:10:16.977Z,76.30
2018-04-12T21:12:44.498Z,76.50
2018-04-12T21:15:12.156Z,76.80
2018-04-12T21:17:42.770Z,77.00
2018-04-12T21:20:16.797Z,77.00
2018-04-12T21:22:56.634Z,77.40
2018-04-12T21:25:24.268Z,78.10
2018-04-12T21:27:57.669Z,77.40
2018-04-12T21:30:25.658Z,77.50
2018-04-12T21:32:54.035Z,77.90
2018-04-12T21:35:33.066Z,77.90
2018-04-12T21:38:00.715Z,78.10
2018-04-12T21:40:28.217Z,78.10
2018-04-12T21:42:56.638Z,78.60
2018-04-12T21:45:24.248Z,78.50
2018-04-12T21:47:51.785Z,78.70
2018-04-12T21:50:19.283Z,78.80
2018-04-12T21:52:52.953Z,79.00
2018-04-12T21:55:20.585Z,79.10
2018-04-12T21:57:48.914Z,79.20
2018-04-12T22:00:22.294Z,79.30
2018-04-12T22:02:49.872Z,79.30
2018-04-12T22:05:29.812Z,79.60
2018-04-12T22:07:57.355Z,79.70
2018-04-12T22:10:24.858Z,79.90
2018-04-12T22:12:52.411Z,80.00
2018-04-12T22:15:19.916Z,80.00
2018-04-12T22:17:48.357Z,80.10
2018-04-12T22:20:15.870Z,80.30
2018-04-12T22:22:44.105Z,80.50
2018-04-12T22:25:11.604Z,80.50
2018-04-12T22:27:39.148Z,80.50
2018-04-12T22:30:06.813Z,80.70
2018-04-12T22:32:34.561Z,80.90
2018-04-12T22:35:02.780Z,81.10
2018-04-12T22:37:31.073Z,81.20
2018-04-12T22:39:59.382Z,81.40
2018-04-12T22:42:32.747Z,81.40
2018-04-12T22:45:00.284Z,81.40
2018-04-12T22:47:27.801Z,81.40
2018-04-12T22:50:00.908Z,81.40
2018-04-12T22:52:28.714Z,81.10
2018-04-12T22:54:57.063Z,80.90
2018-04-12T22:57:30.485Z,80.70
2018-04-12T23:00:04.464Z,80.50
2018-04-12T23:02:31.971Z,80.30
2018-04-12T23:05:06.149Z,80.10
2018-04-12T23:07:33.642Z,80.10
2018-04-12T23:10:01.157Z,80.10
2018-04-12T23:12:34.445Z,79.90
2018-04-12T23:15:07.826Z,79.90
2018-04-12T23:17:35.892Z,80.00
2018-04-12T23:20:03.460Z,80.30
2018-04-12T23:22:30.983Z,80.40
2018-04-12T23:24:59.327Z,80.90
2018-04-12T23:27:38.612Z,80.90
2018-04-12T23:30:08.958Z,81.00
2018-04-12T23:32:36.468Z,81.10
2018-04-12T23:35:04.745Z,81.40
2018-04-12T23:37:32.305Z,81.40
2018-04-12T23:39:59.933Z,81.50
2018-04-12T23:42:27.604Z,81.60
2018-04-12T23:44:55.124Z,81.60
2018-04-12T23:47:22.622Z,81.60
2018-04-12T23:49:56.028Z,81.50
2018-04-12T23:52:23.540Z,81.60
2018-04-12T23:54:51.075Z,81.70
2018-04-12T23:57:24.560Z,81.60
2018-04-12T23:59:52.091Z,81.70
